createdAt,value
2023-03-31T06:21:23.879Z,98187.84
2023-03-31T06:23:50.536Z,98187.94
2023-03-31T06:26:19.809Z,98190.59
2023-03-31T06:28:46.786Z,98185.19
2023-03-31T06:31:19.183Z,98179.03
2023-03-31T06:33:45.781Z,98170.47
2023-03-31T06:36:14.008Z,98159.75
2023-03-31T06:38:40.627Z,98158.91
2023-03-31T06:41:08.787Z,98148.31
2023-03-31T06:43:35.735Z,98136.13
2023-03-31T06:46:02.110Z,98130.94
2023-03-31T06:48:28.775Z,98128.28
2023-03-31T06:50:57.707Z,98118.63
2023-03-31T06:53:24.140Z,98119.59
2023-03-31T06:55:50.888Z,98116.22
2023-03-31T06:58:17.351Z,98110.06
2023-03-31T07:00:46.134Z,98111.78
2023-03-31T07:03:13.862Z,98114.63
2023-03-31T07:05:40.511Z,98121.84
2023-03-31T07:08:07.229Z,98122.81
2023-03-31T07:10:33.597Z,98117.50
2023-03-31T07:13:00.443Z,98120.06
2023-03-31T07:15:28.214Z,98119.94
2023-03-31T07:18:01.983Z,98115.59
2023-03-31T07:20:30.448Z,98119.94
2023-03-31T07:22:57.215Z,98118.13
2023-03-31T07:25:24.063Z,98115.34
2023-03-31T07:27:51.773Z,98099.38
2023-03-31T07:30:20.602Z,98098.31
2023-03-31T07:32:49.245Z,98097.22
2023-03-31T07:35:16.011Z,98083.88
2023-03-31T07:37:46.136Z,98058.09
2023-03-31T07:40:16.804Z,98040.28
2023-03-31T07:42:45.116Z,98035.00
2023-03-31T07:45:13.604Z,98032.44
2023-03-31T07:47:40.064Z,98031.59
2023-03-31T07:50:08.046Z,98037.75
2023-03-31T07:52:35.268Z,98026.44
2023-03-31T07:55:01.795Z,98001.84
2023-03-31T07:57:28.145Z,98001.97
2023-03-31T07:59:54.537Z,97992.34
2023-03-31T08:02:22.757Z,97988.72
2023-03-31T08:04:49.217Z,97992.19
2023-03-31T08:07:17.046Z,97989.41
2023-03-31T08:09:45.857Z,97982.22
2023-03-31T08:12:12.873Z,97986.56
2023-03-31T08:14:41.737Z,97991.50
2023-03-31T08:17:09.603Z,97989.47
2023-03-31T08:19:37.542Z,97986.81
2023-03-31T08:22:04.002Z,97986.50
2023-03-31T08:24:30.400Z,97986.97
2023-03-31T08:26:57.102Z,97970.94
2023-03-31T08:29:23.839Z,97971.47
2023-03-31T08:31:50.415Z,97972.91
2023-03-31T08:34:16.800Z,97976.06
2023-03-31T08:36:43.336Z,97981.50
2023-03-31T08:39:12.049Z,97974.03
2023-03-31T08:41:54.671Z,97980.31
2023-03-31T08:44:37.647Z,97976.59
2023-03-31T08:47:09.743Z,97977.22
2023-03-31T08:49:45.539Z,97974.69
2023-03-31T08:52:19.373Z,97968.53
2023-03-31T08:54:55.522Z,97977.56
2023-03-31T08:57:30.353Z,97961.91
2023-03-31T09:00:06.742Z,97957.53
2023-03-31T09:03:11.951Z,97963.53
2023-03-31T09:05:59.482Z,97960.97
2023-03-31T09:08:35.207Z,97952.25
2023-03-31T09:11:31.897Z,97951.03
2023-03-31T09:14:16.258Z,97949.75
2023-03-31T09:17:15.543Z,97951.28
2023-03-31T09:19:52.628Z,97940.72
2023-03-31T09:22:25.575Z,97932.69
2023-03-31T09:25:06.020Z,97925.38
2023-03-31T09:27:37.139Z,97921.19
2023-03-31T09:30:27.122Z,97919.53
2023-03-31T09:33:09.679Z,97907.03
2023-03-31T09:35:36.453Z,97917.13
2023-03-31T09:38:02.938Z,97903.19
2023-03-31T09:40:29.873Z,97898.44
2023-03-31T09:43:00.922Z,97883.75
2023-03-31T09:45:28.628Z,97886.81
2023-03-31T09:47:59.291Z,97892.44
2023-03-31T09:50:26.681Z,97887.78
2023-03-31T09:52:57.587Z,97889.09
2023-03-31T09:55:38.751Z,97883.03
2023-03-31T09:58:08.148Z,97884.66
2023-03-31T10:00:35.960Z,97878.09
2023-03-31T10:03:07.398Z,97876.06
2023-03-31T10:05:51.248Z,97871.09
2023-03-31T10:08:19.168Z,97874.94
2023-03-31T10:11:07.865Z,97876.53
2023-03-31T10:13:59.099Z,97859.41
2023-03-31T10:16:43.178Z,97869.13
2023-03-31T10:19:26.792Z,97888.34
2023-03-31T10:22:00.937Z,97880.22
2023-03-31T10:24:37.741Z,97871.13
2023-03-31T10:27:08.721Z,97877.13
2023-03-31T10:29:35.342Z,97858.19
2023-03-31T10:32:13.206Z,97840.53
2023-03-31T10:34:42.847Z,97832.09
2023-03-31T10:37:19.254Z,97841.19
2023-03-31T10:39:50.507Z,97845.78
2023-03-31T10:42:22.495Z,97841.28
2023-03-31T10:44:49.165Z,97842.94
2023-03-31T10:47:18.169Z,97867.41
2023-03-31T10:49:44.990Z,97876.41
2023-03-31T10:52:23.206Z,97848.47
2023-03-31T10:54:54.863Z,97852.44
2023-03-31T10:57:48.249Z,97850.19
2023-03-31T11:01:03.188Z,97859.06
2023-03-31T11:04:08.837Z,97852.91
2023-03-31T11:06:49.377Z,97846.09
2023-03-31T11:09:37.563Z,97846.97
2023-03-31T11:12:45.500Z,97848.56
2023-03-31T11:15:24.918Z,97843.66
2023-03-31T11:18:07.056Z,97841.53
2023-03-31T11:20:41.880Z,97839.47
2023-03-31T11:23:14.108Z,97859.84
2023-03-31T11:25:56.666Z,97871.94
2023-03-31T11:28:38.246Z,97878.91
2023-03-31T11:31:16.581Z,97885.22
2023-03-31T11:34:09.385Z,97861.53
2023-03-31T11:36:57.271Z,97866.50
2023-03-31T11:39:38.336Z,97879.13
2023-03-31T11:42:16.315Z,97870.41
2023-03-31T11:44:48.261Z,97861.28
2023-03-31T11:47:19.529Z,97860.94
2023-03-31T11:49:55.357Z,97871.59
2023-03-31T11:52:34.385Z,97861.81
2023-03-31T11:55:17.649Z,97852.94
2023-03-31T11:57:47.159Z,97851.03
2023-03-31T12:00:19.658Z,97851.69
2023-03-31T12:03:22.475Z,97847.94
2023-03-31T12:05:53.738Z,97848.94
2023-03-31T12:08:38.920Z,97845.19
2023-03-31T12:11:10.921Z,97839.72
2023-03-31T12:13:56.171Z,97842.53
2023-03-31T12:16:25.170Z,97837.91
2023-03-31T12:19:22.332Z,97834.84
2023-03-31T12:22:12.815Z,97832.88
2023-03-31T12:24:39.271Z,97842.25
2023-03-31T12:27:16.757Z,97842.66
2023-03-31T12:29:46.950Z,97843.06
2023-03-31T12:32:20.959Z,97839.66
2023-03-31T12:35:00.291Z,97840.84
2023-03-31T12:37:38.751Z,97806.63
2023-03-31T12:40:39.119Z,97790.03
2023-03-31T12:43:24.362Z,97784.56
2023-03-31T12:46:18.629Z,97786.38
2023-03-31T12:49:00.149Z,97792.53
2023-03-31T12:51:57.974Z,97799.13
2023-03-31T12:54:41.924Z,97804.06
2023-03-31T12:57:08.317Z,97799.59
2023-03-31T12:59:39.220Z,97800.91
2023-03-31T13:02:17.372Z,97798.56
2023-03-31T13:04:44.352Z,97796.41
2023-03-31T13:07:29.192Z,97803.81
2023-03-31T13:10:20.000Z,97797.13
2023-03-31T13:13:06.132Z,97778.38
2023-03-31T13:15:35.354Z,97780.88
2023-03-31T13:18:07.276Z,97784.94
2023-03-31T13:20:36.510Z,97786.50
2023-03-31T13:23:11.689Z,97778.38
2023-03-31T13:25:49.944Z,97767.31
2023-03-31T13:28:22.170Z,97775.84
2023-03-31T13:31:04.786Z,97769.69
2023-03-31T13:33:41.718Z,97770.25
2023-03-31T13:36:25.151Z,97764.22
2023-03-31T13:39:12.976Z,97760.31
2023-03-31T13:42:17.165Z,97756.25
2023-03-31T13:45:15.342Z,97745.75
2023-03-31T13:48:15.509Z,97743.22
2023-03-31T13:51:06.040Z,97741.38
2023-03-31T13:54:18.036Z,97743.38
2023-03-31T13:57:21.765Z,97748.69
2023-03-31T14:00:27.602Z,97760.03
2023-03-31T14:03:33.761Z,97762.00
2023-03-31T14:06:18.906Z,97759.91
2023-03-31T14:08:56.526Z,97755.97
2023-03-31T14:11:30.278Z,97739.28
2023-03-31T14:14:11.278Z,97746.72
2023-03-31T14:16:41.202Z,97747.13
2023-03-31T14:19:32.060Z,97735.19
2023-03-31T14:22:14.722Z,97717.81
2023-03-31T14:25:08.168Z,97723.72
2023-03-31T14:27:56.001Z,97773.34
2023-03-31T14:30:42.311Z,97759.47
2023-03-31T14:33:43.296Z,97740.25
2023-03-31T14:36:25.906Z,97731.16
2023-03-31T14:38:52.929Z,97743.06
2023-03-31T14:41:29.613Z,97728.50
2023-03-31T14:43:58.307Z,97734.41
2023-03-31T14:46:24.778Z,97725.28
2023-03-31T14:48:52.028Z,97718.97
2023-03-31T14:51:27.133Z,97714.63
2023-03-31T14:53:57.790Z,97710.00
2023-03-31T14:56:39.922Z,97698.22
2023-03-31T14:59:07.400Z,97700.47
2023-03-31T15:01:37.732Z,97699.91
2023-03-31T15:04:09.753Z,97694.00
2023-03-31T15:06:39.642Z,97686.00
2023-03-31T15:09:06.416Z,97697.38
2023-03-31T15:11:33.031Z,97691.06
2023-03-31T15:14:05.562Z,97698.78
2023-03-31T15:16:43.520Z,97703.25
2023-03-31T15:19:21.485Z,97701.59
2023-03-31T15:21:56.488Z,97702.28
2023-03-31T15:24:23.729Z,97698.63
2023-03-31T15:26:58.428Z,97707.47
2023-03-31T15:29:49.872Z,97692.75
2023-03-31T15:32:28.378Z,97708.44
2023-03-31T15:34:57.341Z,97712.09
2023-03-31T15:37:40.314Z,97718.53
2023-03-31T15:40:24.473Z,97710.53
2023-03-31T15:43:06.658Z,97723.03
2023-03-31T15:45:51.974Z,97741.00
2023-03-31T15:48:37.648Z,97750.78
2023-03-31T15:51:19.500Z,97735.78
2023-03-31T15:53:48.999Z,97711.13
2023-03-31T15:56:46.576Z,97717.22
2023-03-31T15:59:27.516Z,97722.78
2023-03-31T16:01:56.471Z,97720.34
2023-03-31T16:04:29.277Z,97715.00
2023-03-31T16:07:05.161Z,97710.91
2023-03-31T16:09:53.815Z,97714.22
2023-03-31T16:12:27.468Z,97710.47
2023-03-31T16:15:04.744Z,97718.22
2023-03-31T16:17:42.961Z,97718.78
2023-03-31T16:20:19.933Z,97722.09
2023-03-31T16:22:52.662Z,97729.47
2023-03-31T16:25:22.404Z,97732.50
2023-03-31T16:27:53.616Z,97740.19
2023-03-31T16:30:23.846Z,97738.88
2023-03-31T16:33:10.655Z,97740.09
2023-03-31T16:35:42.799Z,97744.72
2023-03-31T16:38:11.868Z,97742.69
2023-03-31T16:40:44.010Z,97738.59
2023-03-31T16:43:15.888Z,97745.53
2023-03-31T16:45:51.012Z,97741.31
2023-03-31T16:48:20.917Z,97736.28
2023-03-31T16:50:50.736Z,97733.16
2023-03-31T16:53:20.832Z,97731.88
2023-03-31T16:55:47.238Z,97733.78
2023-03-31T16:58:16.040Z,97749.84
2023-03-31T17:00:42.841Z,97739.56
2023-03-31T17:03:10.438Z,97740.69
2023-03-31T17:05:44.644Z,97741.66
2023-03-31T17:08:12.904Z,97743.72
2023-03-31T17:10:41.222Z,97743.00
2023-03-31T17:13:09.648Z,97743.13
2023-03-31T17:15:37.875Z,97760.00
2023-03-31T17:18:07.296Z,97738.91
2023-03-31T17:20:34.309Z,97747.94
2023-03-31T17:23:01.463Z,97745.44
2023-03-31T17:25:27.926Z,97747.25
2023-03-31T17:27:56.184Z,97748.34
2023-03-31T17:30:25.904Z,97756.16
2023-03-31T17:32:52.777Z,97755.31
2023-03-31T17:35:22.396Z,97751.00
2023-03-31T17:37:51.493Z,97759.78
2023-03-31T17:40:18.226Z,97758.94
2023-03-31T17:42:44.761Z,97763.41
2023-03-31T17:45:12.691Z,97763.41
2023-03-31T17:47:39.129Z,97764.38
2023-03-31T17:50:06.176Z,97767.88
2023-03-31T17:52:33.614Z,97772.22
2023-03-31T17:54:59.949Z,97775.84
2023-03-31T17:57:27.371Z,97776.78
2023-03-31T17:59:54.442Z,97775.94
2023-03-31T18:02:20.862Z,97782.38
2023-03-31T18:04:47.370Z,97781.63
2023-03-31T18:07:14.404Z,97779.13
2023-03-31T18:09:40.749Z,97781.88
2023-03-31T18:12:07.197Z,97784.75
2023-03-31T18:14:33.866Z,97783.09
2023-03-31T18:17:01.801Z,97783.09
2023-03-31T18:19:28.121Z,97785.03
2023-03-31T18:21:57.218Z,97779.84
2023-03-31T18:24:24.675Z,97785.13
2023-03-31T18:26:51.302Z,97795.88
2023-03-31T18:29:21.099Z,97796.00
2023-03-31T18:31:47.666Z,97798.66
2023-03-31T18:34:17.105Z,97784.53
2023-03-31T18:36:43.525Z,97779.25
2023-03-31T18:39:11.248Z,97792.50
2023-03-31T18:41:44.854Z,97789.84
2023-03-31T18:44:16.239Z,97792.63
2023-03-31T18:46:44.963Z,97784.69
2023-03-31T18:49:12.280Z,97783.94
2023-03-31T18:51:39.665Z,97782.13
2023-03-31T18:54:08.759Z,97786.59
2023-03-31T18:56:38.131Z,97791.91
2023-03-31T18:59:05.375Z,97796.50
2023-03-31T19:01:35.068Z,97798.19
2023-03-31T19:04:01.514Z,97807.81
2023-03-31T19:06:29.377Z,97799.84
2023-03-31T19:08:56.772Z,97808.78
2023-03-31T19:11:24.078Z,97807.22
2023-03-31T19:13:52.361Z,97808.91
2023-03-31T19:16:22.453Z,97811.66
2023-03-31T19:18:49.026Z,97810.00
2023-03-31T19:21:16.957Z,97810.00
2023-03-31T19:23:44.247Z,97813.72
2023-03-31T19:26:17.976Z,97808.19
2023-03-31T19:28:54.103Z,97805.41
2023-03-31T19:31:20.904Z,97806.38
2023-03-31T19:33:47.374Z,97797.44
2023-03-31T19:36:14.176Z,97792.13
2023-03-31T19:38:42.175Z,97797.44
2023-03-31T19:41:10.422Z,97808.78
2023-03-31T19:43:39.994Z,97812.41
2023-03-31T19:46:08.269Z,97812.16
2023-03-31T19:48:35.425Z,97806.97
2023-03-31T19:51:06.227Z,97814.09
2023-03-31T19:53:33.773Z,97809.75
2023-03-31T19:56:02.804Z,97799.38
2023-03-31T19:58:30.839Z,97793.34
2023-03-31T20:00:57.803Z,97792.50
2023-03-31T20:03:26.060Z,97790.97
2023-03-31T20:05:53.997Z,97786.63
2023-03-31T20:08:20.709Z,97781.44
2023-03-31T20:10:50.279Z,97787.59
2023-03-31T20:13:18.289Z,97778.19
2023-03-31T20:15:45.179Z,97776.63
2023-03-31T20:18:12.661Z,97782.88
2023-03-31T20:20:40.870Z,97785.69
2023-03-31T20:23:07.440Z,97782.16
2023-03-31T20:25:37.518Z,97789.41
2023-03-31T20:28:04.064Z,97803.72
2023-03-31T20:30:30.499Z,97806.63
2023-03-31T20:32:57.449Z,97807.50
2023-03-31T20:35:24.212Z,97803.03
2023-03-31T20:37:55.348Z,97790.84
2023-03-31T20:40:22.550Z,97799.78
2023-03-31T20:42:50.432Z,97799.16
2023-03-31T20:45:16.774Z,97798.56
2023-03-31T20:47:46.628Z,97802.06
2023-03-31T20:50:13.168Z,97797.00
2023-03-31T20:52:41.627Z,97804.94
2023-03-31T20:55:09.660Z,97813.84
2023-03-31T20:57:36.533Z,97813.25
2023-03-31T21:00:03.865Z,97807.13
2023-03-31T21:02:30.289Z,97800.00
2023-03-31T21:04:56.627Z,97802.88
2023-03-31T21:07:25.658Z,97800.22
2023-03-31T21:09:52.310Z,97806.50
2023-03-31T21:12:19.782Z,97815.53
2023-03-31T21:14:46.442Z,97814.69
2023-03-31T21:17:12.800Z,97811.06
2023-03-31T21:19:39.142Z,97810.22
2023-03-31T21:22:07.963Z,97809.38
2023-03-31T21:24:36.005Z,97813.00
2023-03-31T21:27:02.348Z,97813.09
2023-03-31T21:29:29.297Z,97817.47
2023-03-31T21:31:57.837Z,97815.66
2023-03-31T21:34:24.308Z,97819.25
2023-03-31T21:36:51.684Z,97808.78
2023-03-31T21:39:18.024Z,97812.41
2023-03-31T21:41:44.422Z,97813.25
2023-03-31T21:44:11.206Z,97808.03
2023-03-31T21:46:37.834Z,97816.72
2023-03-31T21:49:04.307Z,97804.44
2023-03-31T21:51:31.229Z,97808.03
2023-03-31T21:53:57.767Z,97807.19
2023-03-31T21:56:32.714Z,97807.19
2023-03-31T21:59:01.962Z,97805.38
2023-03-31T22:01:28.627Z,97806.38
2023-03-31T22:03:54.989Z,97809.75
2023-03-31T22:06:22.301Z,97808.19
2023-03-31T22:08:51.100Z,97800.34
2023-03-31T22:11:17.725Z,97802.88
2023-03-31T22:13:44.462Z,97803.00
2023-03-31T22:16:19.490Z,97800.22
2023-03-31T22:18:47.588Z,97798.53
2023-03-31T22:21:21.376Z,97796.97
2023-03-31T22:23:48.220Z,97803.09
2023-03-31T22:26:14.587Z,97803.09
2023-03-31T22:28:41.114Z,97796.00
2023-03-31T22:31:08.134Z,97798.66
2023-03-31T22:33:35.540Z,97796.97
2023-03-31T22:36:02.021Z,97804.06
2023-03-31T22:38:29.913Z,97805.88
2023-03-31T22:40:56.951Z,97808.53
2023-03-31T22:43:23.645Z,97805.03
2023-03-31T22:45:50.113Z,97806.97
2023-03-31T22:48:16.994Z,97804.31
2023-03-31T22:50:43.396Z,97811.41
2023-03-31T22:53:10.850Z,97808.03
2023-03-31T22:55:54.002Z,97800.94
2023-03-31T22:58:21.808Z,97806.34
2023-03-31T23:00:57.793Z,97804.75
2023-03-31T23:03:24.583Z,97814.53
2023-03-31T23:05:50.916Z,97811.88
2023-03-31T23:08:17.460Z,97810.19
2023-03-31T23:10:54.359Z,97809.34
2023-03-31T23:13:21.037Z,97809.34
2023-03-31T23:15:49.012Z,97814.03
2023-03-31T23:18:15.378Z,97809.72
2023-03-31T23:20:42.659Z,97816.81
2023-03-31T23:23:08.992Z,97813.28
2023-03-31T23:25:35.703Z,97810.78
2023-03-31T23:28:02.522Z,97817.03
2023-03-31T23:30:29.205Z,97813.56
2023-03-31T23:32:55.566Z,97815.34
2023-03-31T23:35:22.240Z,97812.81
2023-03-31T23:37:48.587Z,97812.09
2023-03-31T23:40:16.229Z,97805.94
2023-03-31T23:42:42.698Z,97796.31
2023-03-31T23:45:09.449Z,97805.94
2023-03-31T23:47:36.224Z,97795.63
2023-03-31T23:50:02.943Z,97801.75
2023-03-31T23:52:29.310Z,97790.19
2023-03-31T23:54:57.043Z,97795.47
2023-03-31T23:57:23.483Z,97803.66
2023-03-31T23:59:54.268Z,97799.19
